Terminal Aerodrome Forecast
Issued by NWS

Home | Current Version | Previous Version | Text Only | Print | Product List | Glossary On
Versions: 1 2 3 4 5 6 7 8 9 10 11 12 13 14 15
000
FTUS41 KBGM 240857 AAA
TAFITH
TAF AMD
KITH 240857Z 2409/2506 12003KT P6SM SKC
     FM241400 26008KT P6SM SCT250
     FM250000 15005KT P6SM SCT120 BKN200=

USA.gov is the U.S. government's official web portal to all federal, state and local government web resources and services.